Saturday, September 22, 2018, 10:57 PM EDT
Back to Local

KPOU, Poughkeepsie Dutchess Cty

Location: Wappingers Falls, NY, United States Lat: 41.633
Local Time: 10:57 PM EDT ( 2:57 GMT) Lon: -73.883
Time Zone: US/Eastern Elev: 167 ft

Show me the last for .
Show Decoded

2018-09-22 21:53 METAR KPOU 230153Z 00000KT 10SM CLR 12/11 A3022 RMK AO2 SLP230 T01220106 =
2018-09-22 20:53 METAR KPOU 230053Z 00000KT 10SM CLR 14/11 A3022 RMK AO2 SLP229 T01390111 =
2018-09-22 19:53 METAR KPOU 222353Z 00000KT 10SM CLR 14/11 A3020 RMK AO2 SLP222 T01440111 10194
                 20144 51013 =
2018-09-22 18:53 METAR KPOU 222253Z 00000KT 10SM CLR 16/10 A3019 RMK AO2 SLP220 T01560100 =
2018-09-22 17:53 METAR KPOU 222153Z 00000KT 10SM CLR 17/10 A3018 RMK AO2 SLP215 T01670100 =
2018-09-22 16:53 METAR KPOU 222053Z 01007KT 10SM CLR 18/08 A3016 RMK AO2 SLP208 T01780083 53003 =
2018-09-22 15:53 METAR KPOU 221953Z 01006KT 10SM CLR 19/08 A3016 RMK AO2 SLP207 T01890083 =
2018-09-22 14:53 METAR KPOU 221853Z 01009KT 10SM CLR 19/08 A3015 RMK AO2 SLP205 T01890078 =
2018-09-22 13:53 METAR KPOU 221753Z 02007KT 10SM CLR 19/09 A3015 RMK AO2 SLP205 T01940094 10194
                 20172 53005 =
2018-09-22 12:53 METAR KPOU 221653Z 34009KT 10SM CLR 18/08 A3014 RMK AO2 SLP203 T01830083 =
2018-09-22 11:53 METAR KPOU 221553Z 01007KT 10SM CLR 19/10 A3014 RMK AO2 SLP201 T01940100 =
2018-09-22 10:53 METAR KPOU 221453Z 03009KT 10SM CLR 17/09 A3014 RMK AO2 SLP200 T01720089 51028 =
2018-09-22 09:53 METAR KPOU 221353Z 03010KT 10SM SCT030 17/10 A3012 RMK AO2 SLP197 T01720100 =
2018-09-22 08:53 METAR KPOU 221253Z COR 35008KT 10SM SCT030 18/11 A3009 RMK AO2 SLP185 T01830111
                 =
2018-09-22 07:53 METAR KPOU 221153Z 31008KT 10SM CLR 18/11 A3005 RMK AO2 SLP172 60001 70002
                 T01830111 10217 20183 51042 =
2018-09-22 07:03 METAR KPOU 221103Z 28004KT 10SM BKN031 19/13 A3003 RMK AO2 T01890133 =
2018-09-22 06:53 METAR KPOU 221053Z VRB03KT 10SM FEW023 BKN029 19/14 A3002 RMK AO2 SLP163
                 T01940139 =
2018-09-22 05:53 METAR KPOU 220953Z AUTO 31006KT 10SM CLR 21/17 A2998 RMK AO2 PRESRR SLP147
                 T02060172 =
2018-09-22 04:53 METAR KPOU 220853Z AUTO 23008KT 10SM CLR 21/19 A2993 RMK AO2 SLP130 60001
                 T02110189 53009 =
2018-09-22 03:53 METAR KPOU 220753Z AUTO 23007KT 10SM FEW100 21/19 A2991 RMK AO2 SLP122 T02110194
                 =
2018-09-22 03:31 METAR KPOU 220731Z AUTO 23007KT 10SM SCT013 BKN100 21/19 A2991 RMK AO2 T02110194
                 =
2018-09-22 02:53 METAR KPOU 220653Z AUTO 22005KT 10SM OVC014 22/19 A2991 RMK AO2 RAE02B25E39
                 SLP123 P0001 T02170194 =
2018-09-22 02:45 METAR KPOU 220645Z AUTO 24005KT 10SM OVC014 22/19 A2991 RMK AO2 RAE02B25E39
                 P0001 T02170194 =
2018-09-22 01:53 METAR KPOU 220553Z AUTO 20005KT 8SM -RA OVC018 22/19 A2990 RMK AO2 RAB41 SLP121
                 P0001 60001 T02170189 10228 20211 56020 =
2018-09-22 00:53 METAR KPOU 220453Z AUTO 18007KT 10SM OVC021 22/18 A2991 RMK AO2 SLP123 T02220183
                 402280178 =
2018-09-21 23:53 METAR KPOU 220353Z AUTO 18007KT 10SM OVC021 22/18 A2993 RMK AO2 SLP129 T02220178
                 =

Support USWX by starting your Amazon purchase here.